createdAt,value
2022-10-20T00:01:20.406Z,3.23
2022-10-20T00:03:49.442Z,3.50
2022-10-20T00:06:21.560Z,3.57
2022-10-20T00:08:49.774Z,3.27
2022-10-20T00:11:20.200Z,3.60
2022-10-20T00:13:49.616Z,3.60
2022-10-20T00:16:18.521Z,3.10
2022-10-20T00:18:46.760Z,3.17
2022-10-20T00:21:16.461Z,3.40
2022-10-20T00:23:45.934Z,3.53
2022-10-20T00:26:15.723Z,3.40
2022-10-20T00:28:43.870Z,3.53
2022-10-20T00:31:13.018Z,3.63
2022-10-20T00:33:41.150Z,3.90
2022-10-20T00:36:13.332Z,3.97
2022-10-20T00:38:41.352Z,3.63
2022-10-20T00:41:13.339Z,3.70
2022-10-20T00:43:47.649Z,3.50
2022-10-20T00:46:18.505Z,3.80
2022-10-20T00:48:50.057Z,3.70
2022-10-20T00:51:22.523Z,3.63
2022-10-20T00:53:53.259Z,3.40
2022-10-20T00:56:24.046Z,3.30
2022-10-20T00:58:52.382Z,3.70
2022-10-20T01:01:20.494Z,3.77
2022-10-20T01:03:50.998Z,3.90
2022-10-20T01:06:22.459Z,3.70
2022-10-20T01:08:51.568Z,3.57
2022-10-20T01:11:29.500Z,3.50
2022-10-20T01:14:07.948Z,3.67
2022-10-20T01:16:45.733Z,3.40
2022-10-20T01:19:42.629Z,3.30
2022-10-20T01:22:27.530Z,4.10
2022-10-20T01:25:07.487Z,3.33
2022-10-20T01:27:39.247Z,3.93
2022-10-20T01:30:10.756Z,3.87
2022-10-20T01:32:56.264Z,3.60
2022-10-20T01:35:35.205Z,3.60
2022-10-20T01:38:11.882Z,3.73
2022-10-20T01:40:44.751Z,3.80
2022-10-20T01:43:16.714Z,3.93
2022-10-20T01:45:48.096Z,3.87
2022-10-20T01:48:18.860Z,3.57
2022-10-20T01:50:47.859Z,3.67
2022-10-20T01:53:16.103Z,3.80
2022-10-20T01:55:44.591Z,3.77
2022-10-20T01:58:49.303Z,3.80
2022-10-20T02:01:26.445Z,3.90
2022-10-20T02:03:57.015Z,3.80
2022-10-20T02:06:34.403Z,3.57
2022-10-20T02:09:05.347Z,4.03
2022-10-20T02:11:42.790Z,3.93
2022-10-20T02:14:14.441Z,3.80
2022-10-20T02:16:46.951Z,3.73
2022-10-20T02:19:17.643Z,3.67
2022-10-20T02:21:46.242Z,4.10
2022-10-20T02:24:16.646Z,3.90
2022-10-20T02:26:45.343Z,4.00
2022-10-20T02:29:16.907Z,3.83
2022-10-20T02:31:46.123Z,4.43
2022-10-20T02:34:14.487Z,3.90
2022-10-20T02:36:44.139Z,3.67
2022-10-20T02:39:13.218Z,4.07
2022-10-20T02:41:41.109Z,4.43
2022-10-20T02:44:08.949Z,3.80
2022-10-20T02:46:38.145Z,3.90
2022-10-20T02:49:05.989Z,4.37
2022-10-20T02:51:33.877Z,4.10
2022-10-20T02:54:01.755Z,4.40
2022-10-20T02:56:31.033Z,4.03
2022-10-20T02:58:59.232Z,3.83
2022-10-20T03:01:27.271Z,3.87
2022-10-20T03:03:59.647Z,4.03
2022-10-20T03:06:27.859Z,4.00
2022-10-20T03:08:55.782Z,3.90
2022-10-20T03:11:23.987Z,3.67
2022-10-20T03:13:51.877Z,4.07
2022-10-20T03:16:19.744Z,4.77
2022-10-20T03:18:47.619Z,3.50
2022-10-20T03:21:16.840Z,4.00
2022-10-20T03:23:44.797Z,4.00
2022-10-20T03:26:13.179Z,3.80
2022-10-20T03:28:41.562Z,3.77
2022-10-20T03:31:09.514Z,3.97
2022-10-20T03:33:37.471Z,3.80
2022-10-20T03:36:06.209Z,4.33
2022-10-20T03:38:35.474Z,4.07
2022-10-20T03:41:03.340Z,4.13
2022-10-20T03:43:31.213Z,3.87
2022-10-20T03:46:06.170Z,3.93
2022-10-20T03:48:34.196Z,5.13
2022-10-20T03:51:02.515Z,4.13
2022-10-20T03:53:30.838Z,4.17
2022-10-20T03:56:00.116Z,4.10
2022-10-20T03:58:27.999Z,4.20
2022-10-20T04:00:56.173Z,4.07
2022-10-20T04:03:24.073Z,3.90
2022-10-20T04:05:51.966Z,4.00
2022-10-20T04:08:19.860Z,3.70
2022-10-20T04:10:47.742Z,4.43
2022-10-20T04:13:16.945Z,4.00
2022-10-20T04:15:44.767Z,4.50
2022-10-20T04:18:12.639Z,4.10
2022-10-20T04:20:43.578Z,3.87
2022-10-20T04:23:12.524Z,4.20
2022-10-20T04:25:45.439Z,4.60
2022-10-20T04:28:13.638Z,3.80
2022-10-20T04:30:43.603Z,4.30
2022-10-20T04:33:11.843Z,3.90
2022-10-20T04:35:40.311Z,3.97
2022-10-20T04:38:08.371Z,3.97
2022-10-20T04:40:36.277Z,4.50
2022-10-20T04:43:04.253Z,3.87
2022-10-20T04:45:32.134Z,3.90
2022-10-20T04:48:02.226Z,4.13
2022-10-20T04:50:30.072Z,4.30
2022-10-20T04:52:59.410Z,4.17
2022-10-20T04:55:27.267Z,4.07
2022-10-20T04:57:55.100Z,4.17
2022-10-20T05:00:22.987Z,3.97
2022-10-20T05:02:50.864Z,4.27
2022-10-20T05:05:21.604Z,4.07
2022-10-20T05:07:49.475Z,4.30
2022-10-20T05:10:19.271Z,4.67
2022-10-20T05:12:47.181Z,4.40
2022-10-20T05:15:15.474Z,4.37
2022-10-20T05:17:43.362Z,4.23
2022-10-20T05:20:11.609Z,3.80
2022-10-20T05:22:40.803Z,4.70
2022-10-20T05:25:35.953Z,4.20
2022-10-20T05:27:58.725Z,4.33
2022-10-20T05:30:26.644Z,4.70
2022-10-20T05:32:54.519Z,4.30
2022-10-20T05:35:22.432Z,4.50
2022-10-20T05:37:51.627Z,4.50
2022-10-20T05:40:19.480Z,4.80
2022-10-20T05:42:47.327Z,5.13
2022-10-20T05:45:15.440Z,7.57
2022-10-20T05:47:43.709Z,4.60
2022-10-20T05:50:11.878Z,4.97
2022-10-20T05:52:39.809Z,5.20
2022-10-20T05:55:10.683Z,4.10
2022-10-20T05:57:38.562Z,4.43
2022-10-20T06:00:07.614Z,5.00
2022-10-20T06:02:35.684Z,4.77
2022-10-20T06:05:03.810Z,5.03
2022-10-20T06:07:31.634Z,4.90
2022-10-20T06:09:59.554Z,5.10
2022-10-20T06:12:28.752Z,4.77
2022-10-20T06:14:56.603Z,5.33
2022-10-20T06:17:24.601Z,5.13
2022-10-20T06:19:52.825Z,4.67
2022-10-20T06:22:20.691Z,5.20
2022-10-20T06:24:48.525Z,4.80
2022-10-20T06:27:16.355Z,5.17
2022-10-20T06:29:45.556Z,4.90
2022-10-20T06:34:42.324Z,4.77
2022-10-20T06:37:11.080Z,5.10
2022-10-20T06:39:39.008Z,5.40
2022-10-20T06:42:09.656Z,5.30
2022-10-20T06:44:39.913Z,5.53
2022-10-20T06:47:10.451Z,5.27
2022-10-20T06:49:38.372Z,4.73
2022-10-20T06:52:06.270Z,5.30
2022-10-20T06:54:34.263Z,5.30
2022-10-20T06:57:02.191Z,4.97
2022-10-20T06:59:30.030Z,5.07
2022-10-20T07:01:58.099Z,5.33
2022-10-20T07:04:27.366Z,5.37
2022-10-20T07:06:55.219Z,5.40
2022-10-20T07:09:23.121Z,5.37
2022-10-20T07:11:54.193Z,5.30
2022-10-20T07:14:23.135Z,5.47
2022-10-20T07:16:51.101Z,5.13
2022-10-20T07:19:18.988Z,5.83
2022-10-20T07:21:48.247Z,5.40
2022-10-20T07:24:16.979Z,6.00
2022-10-20T07:26:44.930Z,5.70
2022-10-20T07:29:14.546Z,5.43
2022-10-20T07:31:43.912Z,5.47
2022-10-20T07:34:24.963Z,5.63
2022-10-20T07:36:56.873Z,5.60
2022-10-20T07:39:25.117Z,5.70
2022-10-20T07:41:53.039Z,5.70
2022-10-20T07:44:21.207Z,5.50
2022-10-20T07:46:49.174Z,5.40
2022-10-20T07:52:07.072Z,5.43
2022-10-20T07:54:35.141Z,5.53
2022-10-20T07:57:03.005Z,5.77
2022-10-20T07:59:31.262Z,5.73
2022-10-20T08:02:00.209Z,5.07
2022-10-20T08:04:28.875Z,6.20
2022-10-20T08:06:56.758Z,5.50
2022-10-20T08:09:26.118Z,5.87
2022-10-20T08:11:55.622Z,5.60
2022-10-20T08:14:26.740Z,6.20
2022-10-20T08:16:54.650Z,5.80
2022-10-20T08:22:10.382Z,5.70
2022-10-20T08:24:39.559Z,5.77
2022-10-20T08:27:07.422Z,6.00
2022-10-20T08:29:35.303Z,6.00
2022-10-20T08:32:03.229Z,6.00
2022-10-20T08:34:31.129Z,6.07
2022-10-20T08:37:00.126Z,5.87
2022-10-20T08:39:28.027Z,6.37
2022-10-20T08:42:13.924Z,5.77
2022-10-20T08:44:45.754Z,6.07
2022-10-20T08:47:24.864Z,5.43
2022-10-20T08:49:55.094Z,6.10
2022-10-20T08:52:25.076Z,5.87
2022-10-20T08:54:56.136Z,6.50
2022-10-20T08:57:28.265Z,6.27
2022-10-20T08:59:59.978Z,6.30
2022-10-20T09:02:30.915Z,5.97
2022-10-20T09:05:01.125Z,5.97
2022-10-20T09:07:32.754Z,6.40
2022-10-20T09:10:05.875Z,6.03
2022-10-20T09:12:35.517Z,5.73
2022-10-20T09:15:04.156Z,5.40
2022-10-20T09:17:32.703Z,5.97
2022-10-20T09:20:01.538Z,6.37
2022-10-20T09:22:35.741Z,6.33
2022-10-20T09:25:04.643Z,6.30
2022-10-20T09:27:36.162Z,6.67
2022-10-20T09:30:16.194Z,6.10
2022-10-20T09:32:47.372Z,6.40
2022-10-20T09:35:25.581Z,6.57
2022-10-20T09:38:04.647Z,6.37
2022-10-20T09:40:33.170Z,6.10
2022-10-20T09:43:08.277Z,7.10
2022-10-20T09:45:38.968Z,6.27
2022-10-20T09:48:19.349Z,6.63
2022-10-20T09:50:51.045Z,6.70
2022-10-20T09:53:21.727Z,6.57
2022-10-20T09:55:51.511Z,6.23
2022-10-20T09:58:25.398Z,7.03
2022-10-20T10:00:59.688Z,6.37
2022-10-20T10:03:28.192Z,6.50
2022-10-20T10:05:57.802Z,6.40
2022-10-20T10:08:28.661Z,6.50
2022-10-20T10:11:02.490Z,7.50
2022-10-20T10:13:38.543Z,7.27
2022-10-20T10:16:08.875Z,7.00
2022-10-20T10:18:38.312Z,6.63
2022-10-20T10:21:07.974Z,8.70
2022-10-20T10:23:40.971Z,7.43
2022-10-20T10:26:43.904Z,7.07
2022-10-20T10:29:20.503Z,7.03
2022-10-20T10:31:53.426Z,7.03
2022-10-20T10:34:44.697Z,7.43
2022-10-20T10:37:15.088Z,6.97
2022-10-20T10:39:44.466Z,7.70
2022-10-20T10:42:29.386Z,7.70
2022-10-20T10:45:08.481Z,6.70
2022-10-20T10:48:09.330Z,7.30
2022-10-20T10:50:40.704Z,7.20
2022-10-20T10:53:19.365Z,7.07
2022-10-20T10:55:55.732Z,6.87
2022-10-20T10:58:37.568Z,7.07
2022-10-20T11:01:20.499Z,7.23
2022-10-20T11:04:17.051Z,7.40
2022-10-20T11:06:55.559Z,6.73
2022-10-20T11:09:35.807Z,7.30
2022-10-20T11:12:21.200Z,7.70
2022-10-20T11:15:00.834Z,7.37
2022-10-20T11:17:46.314Z,7.60
2022-10-20T11:20:24.667Z,7.70
2022-10-20T11:23:17.659Z,7.63
2022-10-20T11:25:52.051Z,6.97
2022-10-20T11:28:30.377Z,7.40
2022-10-20T11:30:59.812Z,7.27
2022-10-20T11:33:38.058Z,7.50
2022-10-20T11:36:13.788Z,7.47
2022-10-20T11:38:46.270Z,7.97
2022-10-20T11:41:19.104Z,7.77
2022-10-20T11:43:51.791Z,7.67
2022-10-20T11:46:26.699Z,7.97
2022-10-20T11:49:00.304Z,7.53
2022-10-20T11:51:58.714Z,7.93
2022-10-20T11:54:38.893Z,7.60
2022-10-20T11:57:16.761Z,8.07
2022-10-20T12:00:04.499Z,8.27
2022-10-20T12:03:11.238Z,7.73
2022-10-20T12:06:02.621Z,8.40
2022-10-20T12:08:49.382Z,8.77
2022-10-20T12:11:22.955Z,8.63
2022-10-20T12:14:01.974Z,8.20
2022-10-20T12:17:12.606Z,8.00
2022-10-20T12:19:40.939Z,8.90
2022-10-20T12:22:40.772Z,8.50
2022-10-20T12:25:36.117Z,8.27
2022-10-20T12:28:42.261Z,7.97
2022-10-20T12:31:10.480Z,8.53
2022-10-20T12:33:41.671Z,8.40
2022-10-20T12:36:32.575Z,8.97
2022-10-20T12:39:16.986Z,8.40
2022-10-20T12:41:57.050Z,8.10
2022-10-20T12:44:25.393Z,8.70
2022-10-20T12:46:56.546Z,8.97
2022-10-20T12:49:34.348Z,8.50
2022-10-20T12:52:04.737Z,8.33
2022-10-20T12:54:39.491Z,8.70
2022-10-20T12:57:29.817Z,8.60
2022-10-20T13:00:01.734Z,8.80
2022-10-20T13:02:43.778Z,9.27
2022-10-20T13:05:43.085Z,8.57
2022-10-20T13:08:27.987Z,8.50
2022-10-20T13:11:18.420Z,8.40
2022-10-20T13:14:08.026Z,8.53
2022-10-20T13:16:38.551Z,9.00
2022-10-20T13:19:11.425Z,8.60
2022-10-20T13:21:41.217Z,8.60
2022-10-20T13:24:18.473Z,8.90
2022-10-20T13:27:02.588Z,9.37
2022-10-20T13:29:39.119Z,9.67
2022-10-20T13:32:18.639Z,8.67
2022-10-20T13:34:56.235Z,9.10
2022-10-20T13:38:16.976Z,9.00
2022-10-20T13:41:09.577Z,9.10
2022-10-20T13:44:04.623Z,8.90
2022-10-20T13:46:47.781Z,8.80
2022-10-20T13:49:41.821Z,8.73
2022-10-20T13:52:15.579Z,8.23
2022-10-20T13:54:47.581Z,9.03
2022-10-20T13:57:26.519Z,8.83
2022-10-20T14:00:00.584Z,8.43
2022-10-20T14:02:31.423Z,8.97
2022-10-20T14:05:05.431Z,9.30
2022-10-20T14:07:41.660Z,9.60
2022-10-20T14:10:29.822Z,9.63
2022-10-20T14:13:08.215Z,9.50
2022-10-20T14:15:38.978Z,9.40
2022-10-20T14:18:09.638Z,9.10
2022-10-20T14:20:38.706Z,10.67
2022-10-20T14:23:11.574Z,9.53
2022-10-20T14:25:41.857Z,9.90
2022-10-20T14:28:20.321Z,9.37
2022-10-20T14:30:54.513Z,9.47
2022-10-20T14:33:22.849Z,9.97
2022-10-20T14:35:55.260Z,9.20
2022-10-20T14:38:25.450Z,9.50
2022-10-20T14:40:55.275Z,9.37
2022-10-20T14:43:32.585Z,9.23
2022-10-20T14:46:04.029Z,9.23
2022-10-20T14:48:36.503Z,9.13
2022-10-20T14:51:20.000Z,8.90
2022-10-20T14:53:48.628Z,9.50
2022-10-20T14:56:25.405Z,9.90
2022-10-20T14:59:00.467Z,9.07
2022-10-20T15:01:32.415Z,9.90
2022-10-20T15:06:37.140Z,9.20
2022-10-20T15:09:06.638Z,9.87
2022-10-20T15:11:39.814Z,9.40
2022-10-20T15:14:16.993Z,8.90
2022-10-20T15:16:50.322Z,9.57
2022-10-20T15:19:41.326Z,9.43
2022-10-20T15:22:16.493Z,9.73
2022-10-20T15:24:45.049Z,10.10
2022-10-20T15:27:18.880Z,17.53
2022-10-20T15:29:50.417Z,17.00
2022-10-20T15:32:19.998Z,12.73
2022-10-20T15:34:47.983Z,10.23
2022-10-20T15:37:15.980Z,20.30
2022-10-20T15:39:44.901Z,12.77
2022-10-20T15:42:12.918Z,10.80
2022-10-20T15:44:40.847Z,11.35
2022-10-20T15:47:09.175Z,10.07
2022-10-20T15:49:38.694Z,10.27
2022-10-20T15:52:06.608Z,10.37
2022-10-20T15:54:34.564Z,10.87
2022-10-20T15:57:02.564Z,9.90
2022-10-20T15:59:31.211Z,9.57
2022-10-20T16:02:09.745Z,10.17
2022-10-20T16:04:39.231Z,9.57
2022-10-20T16:07:10.563Z,10.87
2022-10-20T16:09:46.850Z,9.53
2022-10-20T16:12:15.095Z,10.20
2022-10-20T16:14:43.336Z,9.93
2022-10-20T16:17:11.440Z,10.50
2022-10-20T16:19:41.244Z,8.93
2022-10-20T16:22:09.385Z,10.20
2022-10-20T16:24:37.564Z,10.73
2022-10-20T16:27:06.377Z,10.63
2022-10-20T16:29:34.655Z,10.53
2022-10-20T16:32:02.812Z,9.83
2022-10-20T16:34:31.166Z,9.97
2022-10-20T16:37:00.578Z,10.13
2022-10-20T16:39:29.051Z,9.87
2022-10-20T16:41:57.196Z,10.13
2022-10-20T16:44:25.202Z,9.87
2022-10-20T16:46:53.105Z,10.50
2022-10-20T16:49:21.602Z,10.53
2022-10-20T16:51:49.577Z,9.97
2022-10-20T16:54:19.099Z,10.00
2022-10-20T16:56:48.894Z,11.40
2022-10-20T16:59:16.730Z,10.80
2022-10-20T17:01:49.150Z,9.67
2022-10-20T17:04:17.289Z,9.50
2022-10-20T17:06:46.840Z,10.77
2022-10-20T17:09:15.048Z,10.77
2022-10-20T17:11:46.139Z,10.13
2022-10-20T17:14:14.851Z,10.13
2022-10-20T17:16:47.415Z,10.03
2022-10-20T17:19:15.939Z,10.00
2022-10-20T17:21:46.124Z,9.97
2022-10-20T17:24:14.950Z,9.50
2022-10-20T17:26:45.175Z,9.13
2022-10-20T17:29:13.295Z,10.33
2022-10-20T17:31:41.240Z,9.83
2022-10-20T17:34:10.524Z,9.80
2022-10-20T17:36:44.691Z,9.40
2022-10-20T17:39:16.234Z,9.23
2022-10-20T17:41:45.638Z,9.87
2022-10-20T17:44:13.462Z,9.63
2022-10-20T17:46:43.160Z,8.77
2022-10-20T17:49:11.085Z,9.83
2022-10-20T17:51:38.954Z,10.07
2022-10-20T17:54:08.378Z,9.60
2022-10-20T17:56:40.042Z,9.73
2022-10-20T17:59:09.514Z,9.50
2022-10-20T18:01:40.281Z,9.73
2022-10-20T18:04:10.782Z,10.13
2022-10-20T18:06:39.720Z,10.30
2022-10-20T18:09:10.901Z,10.47
2022-10-20T18:11:40.314Z,10.10
2022-10-20T18:14:13.310Z,9.90
2022-10-20T18:16:42.905Z,9.67
2022-10-20T18:19:16.417Z,9.37
2022-10-20T18:21:44.941Z,10.07
2022-10-20T18:24:15.257Z,9.37
2022-10-20T18:26:44.686Z,9.67
2022-10-20T18:29:15.753Z,9.83
2022-10-20T18:31:46.964Z,9.67
2022-10-20T18:34:17.167Z,9.47
2022-10-20T18:36:46.092Z,9.37
2022-10-20T18:39:15.107Z,8.87
2022-10-20T18:41:45.497Z,9.30
2022-10-20T18:44:16.267Z,9.73
2022-10-20T18:46:46.114Z,10.00
2022-10-20T18:49:16.380Z,9.40
2022-10-20T18:51:47.344Z,9.70
2022-10-20T18:54:15.654Z,9.73
2022-10-20T18:56:43.759Z,9.03
2022-10-20T18:59:16.314Z,8.70
2022-10-20T19:01:44.696Z,8.97
2022-10-20T19:04:13.773Z,8.83
2022-10-20T19:06:43.812Z,9.07
2022-10-20T19:09:14.658Z,9.50
2022-10-20T19:11:44.519Z,9.53
2022-10-20T19:14:14.340Z,8.97
2022-10-20T19:16:46.026Z,8.60
2022-10-20T19:19:14.561Z,9.10
2022-10-20T19:21:42.538Z,8.43
2022-10-20T19:24:14.062Z,9.13
2022-10-20T19:26:52.513Z,9.40
2022-10-20T19:29:31.634Z,8.57
2022-10-20T19:32:01.570Z,8.97
2022-10-20T19:34:32.259Z,8.67
2022-10-20T19:37:00.938Z,8.10
2022-10-20T19:39:30.904Z,8.53
2022-10-20T19:42:00.859Z,8.23
2022-10-20T19:44:29.005Z,8.60
2022-10-20T19:46:59.117Z,8.63
2022-10-20T19:49:27.423Z,8.40
2022-10-20T19:51:55.602Z,8.80
2022-10-20T19:54:23.559Z,8.23
2022-10-20T19:56:51.475Z,9.23
2022-10-20T19:59:19.511Z,8.47
2022-10-20T20:01:48.437Z,8.50
2022-10-20T20:04:17.676Z,8.63
2022-10-20T20:06:45.939Z,8.70
2022-10-20T20:09:15.516Z,8.73
2022-10-20T20:11:44.071Z,8.83
2022-10-20T20:14:14.856Z,8.27
2022-10-20T20:19:13.862Z,8.57
2022-10-20T20:21:43.241Z,8.53
2022-10-20T20:24:12.909Z,8.80
2022-10-20T20:26:40.960Z,8.77
2022-10-20T20:29:09.019Z,8.83
2022-10-20T20:31:36.907Z,8.57
2022-10-20T20:34:04.972Z,8.60
2022-10-20T20:36:32.950Z,8.63
2022-10-20T20:39:02.208Z,8.40
2022-10-20T20:41:31.200Z,8.60
2022-10-20T20:44:02.954Z,9.37
2022-10-20T20:46:34.055Z,8.13
2022-10-20T20:49:02.967Z,8.27
2022-10-20T20:51:33.695Z,8.77
2022-10-20T20:54:04.177Z,8.87
2022-10-20T20:56:32.135Z,9.20
2022-10-20T20:59:00.712Z,8.33
2022-10-20T21:01:31.555Z,8.57
2022-10-20T21:04:01.539Z,8.27
2022-10-20T21:06:33.980Z,8.43
2022-10-20T21:09:08.818Z,8.67
2022-10-20T21:11:38.862Z,8.73
2022-10-20T21:14:06.779Z,8.87
2022-10-20T21:16:36.911Z,8.07
2022-10-20T21:19:07.942Z,8.10
2022-10-20T21:21:37.558Z,8.50
2022-10-20T21:24:08.110Z,8.23
2022-10-20T21:26:36.044Z,8.50
2022-10-20T21:29:04.932Z,8.30
2022-10-20T21:31:32.835Z,7.70
2022-10-20T21:34:02.500Z,8.70
2022-10-20T21:36:32.508Z,7.77
2022-10-20T21:39:00.763Z,7.93
2022-10-20T21:41:31.839Z,8.13
2022-10-20T21:44:01.710Z,8.50
2022-10-20T21:46:31.885Z,7.83
2022-10-20T21:49:01.902Z,9.00
2022-10-20T21:51:31.479Z,7.77
2022-10-20T21:54:01.186Z,8.23
2022-10-20T21:56:33.092Z,8.27
2022-10-20T21:59:01.015Z,8.23
2022-10-20T22:01:29.093Z,7.67
2022-10-20T22:03:57.126Z,8.77
2022-10-20T22:06:26.627Z,7.80
2022-10-20T22:08:56.737Z,8.33
2022-10-20T22:11:27.953Z,8.13
2022-10-20T22:13:57.898Z,7.90
2022-10-20T22:16:27.481Z,8.03
2022-10-20T22:18:56.923Z,8.77
2022-10-20T22:21:25.586Z,7.87
2022-10-20T22:23:54.660Z,7.73
2022-10-20T22:26:23.586Z,7.27
2022-10-20T22:28:52.326Z,8.03
2022-10-20T22:31:21.550Z,7.77
2022-10-20T22:33:49.497Z,7.53
2022-10-20T22:36:17.408Z,7.67
2022-10-20T22:38:45.422Z,7.63
2022-10-20T22:41:13.988Z,6.93
2022-10-20T22:43:42.100Z,8.37
2022-10-20T22:46:10.480Z,7.93
2022-10-20T22:48:39.777Z,8.43
2022-10-20T22:51:08.831Z,7.87
2022-10-20T22:53:37.129Z,7.80
2022-10-20T22:56:07.491Z,7.87
2022-10-20T22:58:35.570Z,7.30
2022-10-20T23:01:08.018Z,7.70
2022-10-20T23:03:36.013Z,7.57
2022-10-20T23:06:09.441Z,7.90
2022-10-20T23:08:41.732Z,8.17
2022-10-20T23:11:10.257Z,7.83
2022-10-20T23:13:38.323Z,7.63
2022-10-20T23:16:06.819Z,7.90
2022-10-20T23:18:34.831Z,8.17
2022-10-20T23:21:02.910Z,8.37
2022-10-20T23:23:32.705Z,8.03
2022-10-20T23:26:03.704Z,8.00
2022-10-20T23:28:32.652Z,7.77
2022-10-20T23:31:09.231Z,8.20
2022-10-20T23:33:37.330Z,8.10
2022-10-20T23:36:05.754Z,7.33
2022-10-20T23:38:35.375Z,7.80
2022-10-20T23:41:03.512Z,8.33
2022-10-20T23:43:31.579Z,7.17
2022-10-20T23:45:59.598Z,7.67
2022-10-20T23:48:27.581Z,8.43
2022-10-20T23:50:55.855Z,8.10
2022-10-20T23:53:23.791Z,8.03
2022-10-20T23:55:52.991Z,7.77
2022-10-20T23:58:22.460Z,8.20
